Barcelona Knutsen — EACW — position and weather

sailwx.info

Track history (hours):
 
Tides and Currents Weather Stations Pressure Air Temp Water Temp Dewpoint Dewpoint Depression Visibility Wind Speed Wind Dir Waves Ship Positions

Barcelona Knutsen

Last reported at 2015-Aug-20 15:29 UTC. Time now 2015-Aug-31 23:52 UTC.
Position N 03°00' E 100°48'.
Warning: this ship's position is 11 days out of date.

Length 290 m; draft 9.8 m.

Type: Ship (hazmat cat B). MMSI: 224436000.

Date/timePositionNaut miles runAvg speedWind from/ knotsBaromVisibWave heightAir tempDewpointWater temp
2015-Aug-20 15:29N 03°00' E 100°48'3518.2
2015-Aug-20 13:33N 02°41' E 101°17'5317.6
2015-Aug-20 10:33N 02°10' E 102°00'11816.8
2015-Aug-20 03:32N 01°10' E 103°41'1 0.4
2015-Aug-20 01:24N 01°11' E 103°42'0 0.1
2015-Aug-20 00:27N 01°11' E 103°42'0 0.1
2015-Aug-19 23:24N 01°11' E 103°42'0 0.1
2015-Aug-19 21:30N 01°11' E 103°42'0 0.1
2015-Aug-19 20:15N 01°11' E 103°42'0 0.2
2015-Aug-19 18:24N 01°11' E 103°42'0 0.0
2015-Aug-19 17:33N 01°11' E 103°42'0 0.0
2015-Aug-19 16:30N 01°11' E 103°42'0 0.0
2015-Aug-19 15:30N 01°11' E 103°42'0 0.0
2015-Aug-19 14:30N 01°11' E 103°42'0 0.1
2015-Aug-19 13:33N 01°11' E 103°42'0 0.1
2015-Aug-19 12:26N 01°11' E 103°42'4 4.1
2015-Aug-19 11:26N 01°10' E 103°46'8 9.1
2015-Aug-19 10:33N 01°13' E 103°53'4 4.4
2015-Aug-19 09:33N 01°15' E 103°57'9 9.5
2015-Aug-19 08:34N 01°16' E 104°06'  
Track history (hours):
 
Tides and Currents Weather Stations Pressure Air Temp Water Temp Dewpoint Dewpoint Depression Visibility Wind Speed Wind Dir Waves Ship Positions

Barcelona Knutsen

Last reported at 2015-Aug-20 15:29 UTC. Time now 2015-Aug-31 23:52 UTC.
Position N 03°00' E 100°48'.
Warning: this ship's position is 11 days out of date.

Length 290 m; draft 9.8 m.

Type: Ship (hazmat cat B). MMSI: 224436000.

Date/timePositionNaut miles runAvg speedWind from/ knotsBaromVisibWave heightAir tempDewpointWater temp
2015-Aug-20 15:29N 03°00' E 100°48'3518.2
2015-Aug-20 13:33N 02°41' E 101°17'5317.6
2015-Aug-20 10:33N 02°10' E 102°00'11816.8
2015-Aug-20 03:32N 01°10' E 103°41'1 0.4
2015-Aug-20 01:24N 01°11' E 103°42'0 0.1
2015-Aug-20 00:27N 01°11' E 103°42'0 0.1
2015-Aug-19 23:24N 01°11' E 103°42'0 0.1
2015-Aug-19 21:30N 01°11' E 103°42'0 0.1
2015-Aug-19 20:15N 01°11' E 103°42'0 0.2
2015-Aug-19 18:24N 01°11' E 103°42'0 0.0
2015-Aug-19 17:33N 01°11' E 103°42'0 0.0
2015-Aug-19 16:30N 01°11' E 103°42'0 0.0
2015-Aug-19 15:30N 01°11' E 103°42'0 0.0
2015-Aug-19 14:30N 01°11' E 103°42'0 0.1
2015-Aug-19 13:33N 01°11' E 103°42'0 0.1
2015-Aug-19 12:26N 01°11' E 103°42'4 4.1
2015-Aug-19 11:26N 01°10' E 103°46'8 9.1
2015-Aug-19 10:33N 01°13' E 103°53'4 4.4
2015-Aug-19 09:33N 01°15' E 103°57'9 9.5
2015-Aug-19 08:34N 01°16' E 104°06'  

Dump ship's entire track history